sensor_id;sensor_type;location;lat;lon;timestamp;P1;durP1;ratioP1;P2;durP2;ratioP2
2604;SDS011;1312;50.298;8.520;2024-02-21T00:01:37;14.10;;;9.20;;
2604;SDS011;1312;50.298;8.520;2024-02-21T00:04:06;14.00;;;8.43;;
2604;SDS011;1312;50.298;8.520;2024-02-21T00:06:34;14.47;;;9.40;;
2604;SDS011;1312;50.298;8.520;2024-02-21T00:09:03;15.57;;;8.30;;
2604;SDS011;1312;50.298;8.520;2024-02-21T00:11:31;18.43;;;8.50;;
2604;SDS011;1312;50.298;8.520;2024-02-21T00:13:59;12.93;;;8.97;;
2604;SDS011;1312;50.298;8.520;2024-02-21T00:16:28;13.70;;;8.60;;
2604;SDS011;1312;50.298;8.520;2024-02-21T00:18:56;14.67;;;8.13;;
2604;SDS011;1312;50.298;8.520;2024-02-21T00:21:26;13.33;;;8.43;;
2604;SDS011;1312;50.298;8.520;2024-02-21T00:23:55;13.30;;;8.07;;
2604;SDS011;1312;50.298;8.520;2024-02-21T00:26:23;13.07;;;8.63;;
2604;SDS011;1312;50.298;8.520;2024-02-21T00:28:52;11.90;;;7.60;;
2604;SDS011;1312;50.298;8.520;2024-02-21T00:31:20;11.70;;;8.00;;
2604;SDS011;1312;50.298;8.520;2024-02-21T00:33:48;12.93;;;7.63;;
2604;SDS011;1312;50.298;8.520;2024-02-21T00:36:17;13.37;;;7.97;;
2604;SDS011;1312;50.298;8.520;2024-02-21T00:38:46;11.67;;;8.60;;
2604;SDS011;1312;50.298;8.520;2024-02-21T00:41:15;16.43;;;8.03;;
2604;SDS011;1312;50.298;8.520;2024-02-21T00:43:43;11.83;;;8.90;;
2604;SDS011;1312;50.298;8.520;2024-02-21T00:46:11;12.77;;;8.00;;
2604;SDS011;1312;50.298;8.520;2024-02-21T00:48:40;12.20;;;7.50;;
2604;SDS011;1312;50.298;8.520;2024-02-21T00:51:08;13.43;;;8.47;;
2604;SDS011;1312;50.298;8.520;2024-02-21T00:53:36;9.80;;;8.03;;
2604;SDS011;1312;50.298;8.520;2024-02-21T00:56:06;14.97;;;8.93;;
2604;SDS011;1312;50.298;8.520;2024-02-21T00:58:34;12.40;;;8.30;;
2604;SDS011;1312;50.298;8.520;2024-02-21T01:01:03;11.77;;;8.10;;
2604;SDS011;1312;50.298;8.520;2024-02-21T01:03:31;11.87;;;7.33;;
2604;SDS011;1312;50.298;8.520;2024-02-21T01:05:59;21.80;;;8.13;;
2604;SDS011;1312;50.298;8.520;2024-02-21T01:08:28;11.10;;;8.10;;
2604;SDS011;1312;50.298;8.520;2024-02-21T01:10:56;12.93;;;7.70;;
2604;SDS011;1312;50.298;8.520;2024-02-21T01:13:26;13.03;;;8.70;;
2604;SDS011;1312;50.298;8.520;2024-02-21T01:15:54;16.50;;;8.83;;
2604;SDS011;1312;50.298;8.520;2024-02-21T01:18:22;13.83;;;9.20;;
2604;SDS011;1312;50.298;8.520;2024-02-21T01:20:51;13.77;;;8.87;;
2604;SDS011;1312;50.298;8.520;2024-02-21T01:23:19;14.77;;;8.60;;
2604;SDS011;1312;50.298;8.520;2024-02-21T01:25:47;12.03;;;8.13;;
2604;SDS011;1312;50.298;8.520;2024-02-21T01:28:15;16.57;;;9.70;;
2604;SDS011;1312;50.298;8.520;2024-02-21T01:30:45;16.03;;;8.83;;
2604;SDS011;1312;50.298;8.520;2024-02-21T01:33:13;15.60;;;9.90;;
2604;SDS011;1312;50.298;8.520;2024-02-21T01:35:42;11.50;;;7.90;;
2604;SDS011;1312;50.298;8.520;2024-02-21T01:38:12;20.50;;;9.83;;
2604;SDS011;1312;50.298;8.520;2024-02-21T01:40:40;14.90;;;9.60;;
2604;SDS011;1312;50.298;8.520;2024-02-21T01:43:15;14.17;;;8.90;;
2604;SDS011;1312;50.298;8.520;2024-02-21T01:45:45;13.50;;;9.10;;
2604;SDS011;1312;50.298;8.520;2024-02-21T01:48:14;12.40;;;8.80;;
2604;SDS011;1312;50.298;8.520;2024-02-21T01:50:43;15.87;;;8.97;;
2604;SDS011;1312;50.298;8.520;2024-02-21T01:53:12;15.93;;;9.20;;
2604;SDS011;1312;50.298;8.520;2024-02-21T01:55:44;14.80;;;9.10;;
2604;SDS011;1312;50.298;8.520;2024-02-21T01:58:13;10.03;;;8.00;;
2604;SDS011;1312;50.298;8.520;2024-02-21T02:00:41;13.57;;;12.10;;
2604;SDS011;1312;50.298;8.520;2024-02-21T02:03:12;15.50;;;13.90;;
2604;SDS011;1312;50.298;8.520;2024-02-21T02:05:44;15.03;;;13.40;;
2604;SDS011;1312;50.298;8.520;2024-02-21T02:08:12;17.37;;;14.67;;
2604;SDS011;1312;50.298;8.520;2024-02-21T02:10:41;15.00;;;13.70;;
2604;SDS011;1312;50.298;8.520;2024-02-21T02:13:10;16.47;;;14.90;;
2604;SDS011;1312;50.298;8.520;2024-02-21T02:15:38;15.73;;;14.13;;
2604;SDS011;1312;50.298;8.520;2024-02-21T02:18:07;16.60;;;13.80;;
2604;SDS011;1312;50.298;8.520;2024-02-21T02:20:37;17.33;;;14.50;;
2604;SDS011;1312;50.298;8.520;2024-02-21T02:23:07;15.77;;;14.10;;
2604;SDS011;1312;50.298;8.520;2024-02-21T02:25:37;16.07;;;14.50;;
2604;SDS011;1312;50.298;8.520;2024-02-21T02:28:06;16.30;;;14.60;;
2604;SDS011;1312;50.298;8.520;2024-02-21T02:30:35;15.37;;;13.77;;
2604;SDS011;1312;50.298;8.520;2024-02-21T02:33:03;16.47;;;14.47;;
2604;SDS011;1312;50.298;8.520;2024-02-21T02:35:32;15.37;;;13.87;;
2604;SDS011;1312;50.298;8.520;2024-02-21T02:38:01;13.90;;;12.80;;
2604;SDS011;1312;50.298;8.520;2024-02-21T02:40:30;15.70;;;13.47;;
2604;SDS011;1312;50.298;8.520;2024-02-21T02:43:00;15.37;;;14.03;;
2604;SDS011;1312;50.298;8.520;2024-02-21T02:45:28;16.07;;;14.40;;
2604;SDS011;1312;50.298;8.520;2024-02-21T02:47:57;15.90;;;14.60;;
2604;SDS011;1312;50.298;8.520;2024-02-21T02:50:26;15.37;;;13.93;;
2604;SDS011;1312;50.298;8.520;2024-02-21T02:52:55;14.63;;;13.23;;
2604;SDS011;1312;50.298;8.520;2024-02-21T02:55:23;14.77;;;13.47;;
2604;SDS011;1312;50.298;8.520;2024-02-21T02:57:52;16.10;;;14.53;;
2604;SDS011;1312;50.298;8.520;2024-02-21T03:00:22;15.10;;;13.57;;
2604;SDS011;1312;50.298;8.520;2024-02-21T03:02:50;15.93;;;13.90;;
2604;SDS011;1312;50.298;8.520;2024-02-21T03:05:19;16.17;;;14.67;;
2604;SDS011;1312;50.298;8.520;2024-02-21T03:07:48;15.23;;;13.83;;
2604;SDS011;1312;50.298;8.520;2024-02-21T03:10:16;15.67;;;14.10;;
2604;SDS011;1312;50.298;8.520;2024-02-21T03:12:47;14.30;;;13.20;;
2604;SDS011;1312;50.298;8.520;2024-02-21T03:15:15;15.70;;;14.20;;
2604;SDS011;1312;50.298;8.520;2024-02-21T03:17:45;15.17;;;14.00;;
2604;SDS011;1312;50.298;8.520;2024-02-21T03:20:14;15.60;;;14.13;;
2604;SDS011;1312;50.298;8.520;2024-02-21T03:22:43;15.70;;;14.30;;
2604;SDS011;1312;50.298;8.520;2024-02-21T03:25:11;14.80;;;13.43;;
2604;SDS011;1312;50.298;8.520;2024-02-21T03:27:41;17.23;;;13.70;;
2604;SDS011;1312;50.298;8.520;2024-02-21T03:30:09;16.80;;;14.13;;
2604;SDS011;1312;50.298;8.520;2024-02-21T03:32:38;15.73;;;14.23;;
2604;SDS011;1312;50.298;8.520;2024-02-21T03:35:08;18.53;;;13.93;;
2604;SDS011;1312;50.298;8.520;2024-02-21T03:37:36;16.47;;;14.97;;
2604;SDS011;1312;50.298;8.520;2024-02-21T03:40:06;15.63;;;13.97;;
2604;SDS011;1312;50.298;8.520;2024-02-21T03:42:35;15.03;;;13.57;;
2604;SDS011;1312;50.298;8.520;2024-02-21T03:45:03;15.03;;;13.50;;
2604;SDS011;1312;50.298;8.520;2024-02-21T03:47:32;15.87;;;14.47;;
2604;SDS011;1312;50.298;8.520;2024-02-21T03:50:00;16.10;;;14.70;;
2604;SDS011;1312;50.298;8.520;2024-02-21T03:52:30;15.23;;;13.80;;
2604;SDS011;1312;50.298;8.520;2024-02-21T03:54:59;15.43;;;13.83;;
2604;SDS011;1312;50.298;8.520;2024-02-21T03:57:27;15.87;;;14.40;;
2604;SDS011;1312;50.298;8.520;2024-02-21T03:59:56;17.43;;;15.70;;
2604;SDS011;1312;50.298;8.520;2024-02-21T04:02:24;14.40;;;9.73;;
2604;SDS011;1312;50.298;8.520;2024-02-21T04:04:52;13.13;;;9.10;;
2604;SDS011;1312;50.298;8.520;2024-02-21T04:07:20;10.10;;;9.00;;
2604;SDS011;1312;50.298;8.520;2024-02-21T04:09:50;18.70;;;9.53;;
2604;SDS011;1312;50.298;8.520;2024-02-21T04:12:18;13.70;;;9.20;;
2604;SDS011;1312;50.298;8.520;2024-02-21T04:14:47;14.60;;;9.13;;
2604;SDS011;1312;50.298;8.520;2024-02-21T04:17:15;10.97;;;9.80;;
2604;SDS011;1312;50.298;8.520;2024-02-21T04:19:43;11.40;;;9.27;;
2604;SDS011;1312;50.298;8.520;2024-02-21T04:22:12;11.57;;;10.30;;
2604;SDS011;1312;50.298;8.520;2024-02-21T04:24:40;15.70;;;9.57;;
2604;SDS011;1312;50.298;8.520;2024-02-21T04:27:10;10.37;;;8.80;;
2604;SDS011;1312;50.298;8.520;2024-02-21T04:29:38;12.27;;;8.53;;
2604;SDS011;1312;50.298;8.520;2024-02-21T04:32:07;10.83;;;9.00;;
2604;SDS011;1312;50.298;8.520;2024-02-21T04:34:35;11.10;;;9.30;;
2604;SDS011;1312;50.298;8.520;2024-02-21T04:37:05;15.27;;;9.67;;
2604;SDS011;1312;50.298;8.520;2024-02-21T04:39:33;13.70;;;9.17;;
2604;SDS011;1312;50.298;8.520;2024-02-21T04:42:02;10.10;;;8.87;;
2604;SDS011;1312;50.298;8.520;2024-02-21T04:44:31;13.50;;;9.27;;
2604;SDS011;1312;50.298;8.520;2024-02-21T04:46:59;13.37;;;9.80;;
2604;SDS011;1312;50.298;8.520;2024-02-21T04:49:28;15.50;;;10.20;;
2604;SDS011;1312;50.298;8.520;2024-02-21T04:51:56;13.83;;;10.50;;
2604;SDS011;1312;50.298;8.520;2024-02-21T04:54:24;12.10;;;9.60;;
2604;SDS011;1312;50.298;8.520;2024-02-21T04:56:53;12.13;;;8.03;;
2604;SDS011;1312;50.298;8.520;2024-02-21T04:59:21;13.90;;;9.70;;
2604;SDS011;1312;50.298;8.520;2024-02-21T05:01:51;11.77;;;8.97;;
2604;SDS011;1312;50.298;8.520;2024-02-21T05:04:19;12.80;;;8.60;;
2604;SDS011;1312;50.298;8.520;2024-02-21T05:06:47;15.30;;;8.40;;
2604;SDS011;1312;50.298;8.520;2024-02-21T05:09:16;14.20;;;9.33;;
2604;SDS011;1312;50.298;8.520;2024-02-21T05:11:44;13.97;;;9.07;;
2604;SDS011;1312;50.298;8.520;2024-02-21T05:14:12;11.53;;;8.43;;
2604;SDS011;1312;50.298;8.520;2024-02-21T05:16:41;14.83;;;8.53;;
2604;SDS011;1312;50.298;8.520;2024-02-21T05:19:10;14.83;;;8.33;;
2604;SDS011;1312;50.298;8.520;2024-02-21T05:21:39;9.83;;;8.20;;
2604;SDS011;1312;50.298;8.520;2024-02-21T05:24:07;14.87;;;8.83;;
2604;SDS011;1312;50.298;8.520;2024-02-21T05:26:36;12.07;;;8.87;;
2604;SDS011;1312;50.298;8.520;2024-02-21T05:29:04;15.97;;;9.10;;
2604;SDS011;1312;50.298;8.520;2024-02-21T05:31:42;11.80;;;8.90;;
2604;SDS011;1312;50.298;8.520;2024-02-21T05:34:13;11.03;;;8.50;;
2604;SDS011;1312;50.298;8.520;2024-02-21T05:36:41;11.10;;;8.97;;
2604;SDS011;1312;50.298;8.520;2024-02-21T05:39:10;13.90;;;8.43;;
2604;SDS011;1312;50.298;8.520;2024-02-21T05:41:38;13.30;;;9.37;;
2604;SDS011;1312;50.298;8.520;2024-02-21T05:44:06;12.50;;;9.03;;
2604;SDS011;1312;50.298;8.520;2024-02-21T05:46:35;12.83;;;9.77;;
2604;SDS011;1312;50.298;8.520;2024-02-21T05:49:03;15.03;;;9.13;;
2604;SDS011;1312;50.298;8.520;2024-02-21T05:51:33;9.60;;;8.50;;
2604;SDS011;1312;50.298;8.520;2024-02-21T05:54:01;14.93;;;9.20;;
2604;SDS011;1312;50.298;8.520;2024-02-21T05:56:30;11.93;;;9.27;;
2604;SDS011;1312;50.298;8.520;2024-02-21T05:58:58;10.07;;;8.93;;
2604;SDS011;1312;50.298;8.520;2024-02-21T06:01:27;10.30;;;8.50;;
2604;SDS011;1312;50.298;8.520;2024-02-21T06:03:56;14.33;;;9.70;;
2604;SDS011;1312;50.298;8.520;2024-02-21T06:06:24;13.60;;;8.43;;
2604;SDS011;1312;50.298;8.520;2024-02-21T06:08:53;11.47;;;8.57;;
2604;SDS011;1312;50.298;8.520;2024-02-21T06:11:22;14.37;;;7.87;;
2604;SDS011;1312;50.298;8.520;2024-02-21T06:13:50;10.23;;;7.53;;
2604;SDS011;1312;50.298;8.520;2024-02-21T06:16:19;15.80;;;9.00;;
2604;SDS011;1312;50.298;8.520;2024-02-21T06:18:47;13.00;;;8.50;;
2604;SDS011;1312;50.298;8.520;2024-02-21T06:21:16;9.03;;;7.80;;
2604;SDS011;1312;50.298;8.520;2024-02-21T06:23:44;8.47;;;7.50;;
2604;SDS011;1312;50.298;8.520;2024-02-21T06:26:14;10.60;;;8.40;;
2604;SDS011;1312;50.298;8.520;2024-02-21T06:28:42;9.67;;;7.47;;
2604;SDS011;1312;50.298;8.520;2024-02-21T06:31:12;8.90;;;7.40;;
2604;SDS011;1312;50.298;8.520;2024-02-21T06:33:42;15.33;;;7.60;;
2604;SDS011;1312;50.298;8.520;2024-02-21T06:36:10;13.00;;;7.20;;
2604;SDS011;1312;50.298;8.520;2024-02-21T06:38:39;9.90;;;7.87;;
2604;SDS011;1312;50.298;8.520;2024-02-21T06:41:15;7.87;;;7.07;;
2604;SDS011;1312;50.298;8.520;2024-02-21T06:43:45;15.57;;;8.50;;
2604;SDS011;1312;50.298;8.520;2024-02-21T06:46:22;11.60;;;8.63;;
2604;SDS011;1312;50.298;8.520;2024-02-21T06:48:50;9.10;;;7.63;;
2604;SDS011;1312;50.298;8.520;2024-02-21T06:51:19;10.67;;;8.40;;
2604;SDS011;1312;50.298;8.520;2024-02-21T06:53:47;10.80;;;7.50;;
2604;SDS011;1312;50.298;8.520;2024-02-21T06:56:17;7.83;;;6.50;;
2604;SDS011;1312;50.298;8.520;2024-02-21T06:58:45;9.80;;;7.43;;
2604;SDS011;1312;50.298;8.520;2024-02-21T07:01:14;10.10;;;6.83;;
2604;SDS011;1312;50.298;8.520;2024-02-21T07:03:42;10.97;;;7.10;;
2604;SDS011;1312;50.298;8.520;2024-02-21T07:06:10;9.60;;;7.73;;
2604;SDS011;1312;50.298;8.520;2024-02-21T07:08:38;11.13;;;7.90;;
2604;SDS011;1312;50.298;8.520;2024-02-21T07:11:07;8.10;;;7.30;;
2604;SDS011;1312;50.298;8.520;2024-02-21T07:13:37;9.40;;;7.27;;
2604;SDS011;1312;50.298;8.520;2024-02-21T07:16:05;9.50;;;6.80;;
2604;SDS011;1312;50.298;8.520;2024-02-21T07:18:34;9.63;;;7.53;;
2604;SDS011;1312;50.298;8.520;2024-02-21T07:21:02;8.80;;;7.30;;
2604;SDS011;1312;50.298;8.520;2024-02-21T07:23:30;7.73;;;6.07;;
2604;SDS011;1312;50.298;8.520;2024-02-21T07:25:59;6.90;;;6.20;;
2604;SDS011;1312;50.298;8.520;2024-02-21T07:28:27;11.63;;;6.70;;
2604;SDS011;1312;50.298;8.520;2024-02-21T07:30:58;8.80;;;6.60;;
2604;SDS011;1312;50.298;8.520;2024-02-21T07:33:26;7.40;;;5.80;;
2604;SDS011;1312;50.298;8.520;2024-02-21T07:35:56;8.17;;;7.30;;
2604;SDS011;1312;50.298;8.520;2024-02-21T07:38:25;8.43;;;7.53;;
2604;SDS011;1312;50.298;8.520;2024-02-21T07:40:53;8.67;;;7.03;;
2604;SDS011;1312;50.298;8.520;2024-02-21T07:43:21;8.33;;;6.67;;
2604;SDS011;1312;50.298;8.520;2024-02-21T07:45:50;12.30;;;7.97;;
2604;SDS011;1312;50.298;8.520;2024-02-21T07:48:20;7.83;;;7.00;;
2604;SDS011;1312;50.298;8.520;2024-02-21T07:50:50;12.10;;;6.50;;
2604;SDS011;1312;50.298;8.520;2024-02-21T07:53:19;11.67;;;7.50;;
2604;SDS011;1312;50.298;8.520;2024-02-21T07:55:48;11.27;;;6.77;;
2604;SDS011;1312;50.298;8.520;2024-02-21T07:58:16;12.07;;;7.30;;
2604;SDS011;1312;50.298;8.520;2024-02-21T08:00:44;12.60;;;7.27;;
2604;SDS011;1312;50.298;8.520;2024-02-21T08:03:12;10.00;;;7.27;;
2604;SDS011;1312;50.298;8.520;2024-02-21T08:05:43;6.50;;;5.87;;
2604;SDS011;1312;50.298;8.520;2024-02-21T08:08:12;12.40;;;7.00;;
2604;SDS011;1312;50.298;8.520;2024-02-21T08:10:44;10.83;;;7.53;;
2604;SDS011;1312;50.298;8.520;2024-02-21T08:13:13;8.40;;;7.10;;
2604;SDS011;1312;50.298;8.520;2024-02-21T08:15:41;9.83;;;7.70;;
2604;SDS011;1312;50.298;8.520;2024-02-21T08:18:10;8.90;;;8.00;;
2604;SDS011;1312;50.298;8.520;2024-02-21T08:20:38;11.57;;;8.30;;
2604;SDS011;1312;50.298;8.520;2024-02-21T08:23:08;10.00;;;7.27;;
2604;SDS011;1312;50.298;8.520;2024-02-21T08:25:36;9.60;;;7.17;;
2604;SDS011;1312;50.298;8.520;2024-02-21T08:28:04;10.00;;;6.83;;
2604;SDS011;1312;50.298;8.520;2024-02-21T08:30:34;11.97;;;7.33;;
2604;SDS011;1312;50.298;8.520;2024-02-21T08:33:02;7.73;;;6.93;;
2604;SDS011;1312;50.298;8.520;2024-02-21T08:35:31;11.13;;;7.37;;
2604;SDS011;1312;50.298;8.520;2024-02-21T08:38:00;13.90;;;7.10;;
2604;SDS011;1312;50.298;8.520;2024-02-21T08:40:29;8.87;;;6.97;;
2604;SDS011;1312;50.298;8.520;2024-02-21T08:42:58;10.27;;;6.70;;
2604;SDS011;1312;50.298;8.520;2024-02-21T08:45:26;10.13;;;6.53;;
2604;SDS011;1312;50.298;8.520;2024-02-21T08:47:54;8.30;;;7.03;;
2604;SDS011;1312;50.298;8.520;2024-02-21T08:50:22;8.30;;;7.47;;
2604;SDS011;1312;50.298;8.520;2024-02-21T08:52:55;10.03;;;7.83;;
2604;SDS011;1312;50.298;8.520;2024-02-21T08:55:24;11.07;;;6.77;;
2604;SDS011;1312;50.298;8.520;2024-02-21T08:57:54;11.73;;;7.20;;
2604;SDS011;1312;50.298;8.520;2024-02-21T09:00:22;8.67;;;6.93;;
2604;SDS011;1312;50.298;8.520;2024-02-21T09:02:54;8.80;;;6.30;;
2604;SDS011;1312;50.298;8.520;2024-02-21T09:05:23;8.00;;;6.80;;
2604;SDS011;1312;50.298;8.520;2024-02-21T09:07:52;9.43;;;7.80;;
2604;SDS011;1312;50.298;8.520;2024-02-21T09:10:20;13.10;;;7.40;;
2604;SDS011;1312;50.298;8.520;2024-02-21T09:12:49;7.73;;;6.93;;
2604;SDS011;1312;50.298;8.520;2024-02-21T09:15:18;10.43;;;7.00;;
2604;SDS011;1312;50.298;8.520;2024-02-21T09:17:46;8.20;;;6.90;;
2604;SDS011;1312;50.298;8.520;2024-02-21T09:20:15;9.17;;;7.03;;
2604;SDS011;1312;50.298;8.520;2024-02-21T09:22:44;7.37;;;6.50;;
2604;SDS011;1312;50.298;8.520;2024-02-21T09:25:12;7.23;;;6.50;;
2604;SDS011;1312;50.298;8.520;2024-02-21T09:27:41;14.57;;;7.00;;
2604;SDS011;1312;50.298;8.520;2024-02-21T09:30:11;10.23;;;7.57;;
2604;SDS011;1312;50.298;8.520;2024-02-21T09:32:40;6.90;;;6.30;;
2604;SDS011;1312;50.298;8.520;2024-02-21T09:35:09;11.27;;;7.37;;
2604;SDS011;1312;50.298;8.520;2024-02-21T09:37:39;10.23;;;8.03;;
2604;SDS011;1312;50.298;8.520;2024-02-21T09:40:07;8.10;;;6.93;;
2604;SDS011;1312;50.298;8.520;2024-02-21T09:42:36;8.63;;;7.20;;
2604;SDS011;1312;50.298;8.520;2024-02-21T09:45:07;8.07;;;6.50;;
2604;SDS011;1312;50.298;8.520;2024-02-21T09:47:39;7.90;;;7.20;;
2604;SDS011;1312;50.298;8.520;2024-02-21T09:50:10;8.30;;;7.30;;
2604;SDS011;1312;50.298;8.520;2024-02-21T09:52:38;11.17;;;7.63;;
2604;SDS011;1312;50.298;8.520;2024-02-21T09:55:07;9.90;;;7.10;;
2604;SDS011;1312;50.298;8.520;2024-02-21T09:57:38;10.13;;;7.20;;
2604;SDS011;1312;50.298;8.520;2024-02-21T10:00:06;10.70;;;7.97;;
2604;SDS011;1312;50.298;8.520;2024-02-21T10:02:35;11.50;;;8.40;;
2604;SDS011;1312;50.298;8.520;2024-02-21T10:05:04;11.60;;;8.30;;
2604;SDS011;1312;50.298;8.520;2024-02-21T10:07:36;13.50;;;8.60;;
2604;SDS011;1312;50.298;8.520;2024-02-21T10:10:06;9.87;;;7.80;;
2604;SDS011;1312;50.298;8.520;2024-02-21T10:12:34;11.47;;;7.47;;
2604;SDS011;1312;50.298;8.520;2024-02-21T10:15:03;9.67;;;8.43;;
2604;SDS011;1312;50.298;8.520;2024-02-21T10:17:31;10.10;;;7.50;;
2604;SDS011;1312;50.298;8.520;2024-02-21T10:20:07;13.77;;;9.00;;
2604;SDS011;1312;50.298;8.520;2024-02-21T10:22:38;11.10;;;8.40;;
2604;SDS011;1312;50.298;8.520;2024-02-21T10:25:07;10.20;;;8.70;;
2604;SDS011;1312;50.298;8.520;2024-02-21T10:27:36;12.07;;;8.27;;
2604;SDS011;1312;50.298;8.520;2024-02-21T10:30:04;11.13;;;8.73;;
2604;SDS011;1312;50.298;8.520;2024-02-21T10:32:37;11.43;;;8.77;;
2604;SDS011;1312;50.298;8.520;2024-02-21T10:35:24;9.77;;;8.87;;
2604;SDS011;1312;50.298;8.520;2024-02-21T10:37:54;10.90;;;9.57;;
2604;SDS011;1312;50.298;8.520;2024-02-21T10:40:23;9.80;;;8.80;;
2604;SDS011;1312;50.298;8.520;2024-02-21T10:42:54;12.10;;;10.90;;
2604;SDS011;1312;50.298;8.520;2024-02-21T10:45:29;9.33;;;8.33;;
2604;SDS011;1312;50.298;8.520;2024-02-21T10:48:01;11.93;;;9.00;;
2604;SDS011;1312;50.298;8.520;2024-02-21T10:50:32;10.37;;;9.27;;
2604;SDS011;1312;50.298;8.520;2024-02-21T10:53:05;9.50;;;7.80;;
2604;SDS011;1312;50.298;8.520;2024-02-21T10:55:38;11.50;;;8.80;;
2604;SDS011;1312;50.298;8.520;2024-02-21T10:58:06;9.53;;;8.63;;
2604;SDS011;1312;50.298;8.520;2024-02-21T11:00:36;9.27;;;8.00;;
2604;SDS011;1312;50.298;8.520;2024-02-21T11:03:04;11.27;;;8.80;;
2604;SDS011;1312;50.298;8.520;2024-02-21T11:05:33;9.43;;;8.63;;
2604;SDS011;1312;50.298;8.520;2024-02-21T11:08:03;9.13;;;8.13;;
2604;SDS011;1312;50.298;8.520;2024-02-21T11:10:36;10.97;;;9.87;;
2604;SDS011;1312;50.298;8.520;2024-02-21T11:13:07;8.97;;;7.90;;
2604;SDS011;1312;50.298;8.520;2024-02-21T11:15:35;11.23;;;8.60;;
2604;SDS011;1312;50.298;8.520;2024-02-21T11:18:04;10.10;;;7.63;;
2604;SDS011;1312;50.298;8.520;2024-02-21T11:20:32;12.70;;;8.47;;
2604;SDS011;1312;50.298;8.520;2024-02-21T11:23:01;11.00;;;9.30;;
2604;SDS011;1312;50.298;8.520;2024-02-21T11:25:31;8.87;;;7.63;;
2604;SDS011;1312;50.298;8.520;2024-02-21T11:28:01;8.33;;;7.30;;
2604;SDS011;1312;50.298;8.520;2024-02-21T11:30:30;8.93;;;7.97;;
2604;SDS011;1312;50.298;8.520;2024-02-21T11:33:00;8.53;;;7.73;;
2604;SDS011;1312;50.298;8.520;2024-02-21T11:35:32;9.67;;;7.93;;
2604;SDS011;1312;50.298;8.520;2024-02-21T11:38:07;10.13;;;7.60;;
2604;SDS011;1312;50.298;8.520;2024-02-21T11:40:39;8.83;;;7.43;;
2604;SDS011;1312;50.298;8.520;2024-02-21T11:43:08;7.97;;;7.27;;
2604;SDS011;1312;50.298;8.520;2024-02-21T11:45:36;8.00;;;7.20;;
2604;SDS011;1312;50.298;8.520;2024-02-21T11:48:06;10.70;;;7.47;;
2604;SDS011;1312;50.298;8.520;2024-02-21T11:50:34;9.43;;;7.20;;
2604;SDS011;1312;50.298;8.520;2024-02-21T11:53:03;8.10;;;6.80;;
2604;SDS011;1312;50.298;8.520;2024-02-21T11:55:31;7.83;;;7.00;;
2604;SDS011;1312;50.298;8.520;2024-02-21T11:58:02;7.90;;;6.90;;
2604;SDS011;1312;50.298;8.520;2024-02-21T12:00:30;9.30;;;8.43;;
2604;SDS011;1312;50.298;8.520;2024-02-21T12:02:59;11.10;;;10.20;;
2604;SDS011;1312;50.298;8.520;2024-02-21T12:05:28;11.10;;;10.30;;
2604;SDS011;1312;50.298;8.520;2024-02-21T12:07:57;10.80;;;10.00;;
2604;SDS011;1312;50.298;8.520;2024-02-21T12:10:26;11.07;;;10.27;;
2604;SDS011;1312;50.298;8.520;2024-02-21T12:13:05;11.30;;;10.50;;
2604;SDS011;1312;50.298;8.520;2024-02-21T12:15:34;10.87;;;9.97;;
2604;SDS011;1312;50.298;8.520;2024-02-21T12:18:03;10.60;;;9.90;;
2604;SDS011;1312;50.298;8.520;2024-02-21T12:20:31;11.03;;;10.13;;
2604;SDS011;1312;50.298;8.520;2024-02-21T12:23:00;11.50;;;10.50;;
2604;SDS011;1312;50.298;8.520;2024-02-21T12:25:30;10.57;;;9.77;;
2604;SDS011;1312;50.298;8.520;2024-02-21T12:27:58;10.47;;;9.67;;
2604;SDS011;1312;50.298;8.520;2024-02-21T12:30:28;11.33;;;10.50;;
2604;SDS011;1312;50.298;8.520;2024-02-21T12:32:59;10.17;;;9.37;;
2604;SDS011;1312;50.298;8.520;2024-02-21T12:35:28;9.63;;;8.93;;
2604;SDS011;1312;50.298;8.520;2024-02-21T12:37:58;10.20;;;9.53;;
2604;SDS011;1312;50.298;8.520;2024-02-21T12:40:28;9.73;;;9.13;;
2604;SDS011;1312;50.298;8.520;2024-02-21T12:42:59;10.80;;;9.90;;
2604;SDS011;1312;50.298;8.520;2024-02-21T12:45:30;11.63;;;10.70;;
2604;SDS011;1312;50.298;8.520;2024-02-21T12:48:00;10.60;;;9.80;;
2604;SDS011;1312;50.298;8.520;2024-02-21T12:50:28;10.90;;;10.30;;
2604;SDS011;1312;50.298;8.520;2024-02-21T12:52:57;6.47;;;5.43;;
2604;SDS011;1312;50.298;8.520;2024-02-21T12:55:26;8.07;;;6.23;;
2604;SDS011;1312;50.298;8.520;2024-02-21T12:57:54;7.87;;;5.40;;
2604;SDS011;1312;50.298;8.520;2024-02-21T13:00:23;8.00;;;5.90;;
2604;SDS011;1312;50.298;8.520;2024-02-21T13:02:55;6.00;;;5.50;;
2604;SDS011;1312;50.298;8.520;2024-02-21T13:05:24;6.67;;;5.10;;
2604;SDS011;1312;50.298;8.520;2024-02-21T13:07:52;6.53;;;5.23;;
2604;SDS011;1312;50.298;8.520;2024-02-21T13:10:20;7.37;;;5.93;;
2604;SDS011;1312;50.298;8.520;2024-02-21T13:12:49;7.10;;;5.13;;
2604;SDS011;1312;50.298;8.520;2024-02-21T13:15:17;5.53;;;5.03;;
2604;SDS011;1312;50.298;8.520;2024-02-21T13:17:45;6.47;;;4.80;;
2604;SDS011;1312;50.298;8.520;2024-02-21T13:20:15;6.03;;;5.03;;
2604;SDS011;1312;50.298;8.520;2024-02-21T13:22:44;6.10;;;5.07;;
2604;SDS011;1312;50.298;8.520;2024-02-21T13:25:12;11.70;;;5.47;;
2604;SDS011;1312;50.298;8.520;2024-02-21T13:27:42;5.80;;;5.13;;
2604;SDS011;1312;50.298;8.520;2024-02-21T13:30:11;7.33;;;5.10;;
2604;SDS011;1312;50.298;8.520;2024-02-21T13:32:41;11.30;;;5.63;;
2604;SDS011;1312;50.298;8.520;2024-02-21T13:35:13;9.47;;;5.40;;
2604;SDS011;1312;50.298;8.520;2024-02-21T13:37:43;6.80;;;5.17;;
2604;SDS011;1312;50.298;8.520;2024-02-21T13:40:11;8.43;;;5.47;;
2604;SDS011;1312;50.298;8.520;2024-02-21T13:42:41;6.53;;;5.37;;
2604;SDS011;1312;50.298;8.520;2024-02-21T13:45:09;6.90;;;5.70;;
2604;SDS011;1312;50.298;8.520;2024-02-21T13:47:38;6.43;;;5.57;;
2604;SDS011;1312;50.298;8.520;2024-02-21T13:50:06;7.63;;;5.83;;
2604;SDS011;1312;50.298;8.520;2024-02-21T13:52:37;8.90;;;5.97;;
2604;SDS011;1312;50.298;8.520;2024-02-21T13:55:07;6.57;;;5.90;;
2604;SDS011;1312;50.298;8.520;2024-02-21T13:57:36;7.57;;;5.47;;
2604;SDS011;1312;50.298;8.520;2024-02-21T14:00:04;7.73;;;5.50;;
2604;SDS011;1312;50.298;8.520;2024-02-21T14:02:37;8.57;;;6.47;;
2604;SDS011;1312;50.298;8.520;2024-02-21T14:05:06;9.93;;;6.00;;
2604;SDS011;1312;50.298;8.520;2024-02-21T14:07:35;7.87;;;6.30;;
2604;SDS011;1312;50.298;8.520;2024-02-21T14:10:04;6.70;;;6.00;;
2604;SDS011;1312;50.298;8.520;2024-02-21T14:12:33;11.30;;;6.67;;
2604;SDS011;1312;50.298;8.520;2024-02-21T14:15:02;9.47;;;6.20;;
2604;SDS011;1312;50.298;8.520;2024-02-21T14:17:30;8.07;;;6.87;;
2604;SDS011;1312;50.298;8.520;2024-02-21T14:19:58;8.00;;;6.27;;
2604;SDS011;1312;50.298;8.520;2024-02-21T14:22:27;10.23;;;6.83;;
2604;SDS011;1312;50.298;8.520;2024-02-21T14:24:55;7.20;;;6.33;;
2604;SDS011;1312;50.298;8.520;2024-02-21T14:27:24;8.47;;;6.90;;
2604;SDS011;1312;50.298;8.520;2024-02-21T14:29:53;8.57;;;6.40;;
2604;SDS011;1312;50.298;8.520;2024-02-21T14:32:22;9.27;;;6.50;;
2604;SDS011;1312;50.298;8.520;2024-02-21T14:34:50;9.50;;;6.67;;
2604;SDS011;1312;50.298;8.520;2024-02-21T14:37:18;8.87;;;6.70;;
2604;SDS011;1312;50.298;8.520;2024-02-21T14:39:47;7.40;;;6.63;;
2604;SDS011;1312;50.298;8.520;2024-02-21T14:42:16;9.10;;;5.80;;
2604;SDS011;1312;50.298;8.520;2024-02-21T14:44:44;7.93;;;5.90;;
2604;SDS011;1312;50.298;8.520;2024-02-21T14:47:14;8.60;;;6.10;;
2604;SDS011;1312;50.298;8.520;2024-02-21T14:49:42;9.70;;;6.00;;
2604;SDS011;1312;50.298;8.520;2024-02-21T14:52:11;7.13;;;5.90;;
2604;SDS011;1312;50.298;8.520;2024-02-21T14:54:39;6.50;;;5.30;;
2604;SDS011;1312;50.298;8.520;2024-02-21T14:57:11;7.60;;;5.70;;
2604;SDS011;1312;50.298;8.520;2024-02-21T14:59:40;7.53;;;5.50;;
2604;SDS011;1312;50.298;8.520;2024-02-21T15:02:08;8.10;;;5.27;;
2604;SDS011;1312;50.298;8.520;2024-02-21T15:04:38;6.73;;;5.83;;
2604;SDS011;1312;50.298;8.520;2024-02-21T15:07:06;7.27;;;5.80;;
2604;SDS011;1312;50.298;8.520;2024-02-21T15:09:35;7.43;;;5.10;;
2604;SDS011;1312;50.298;8.520;2024-02-21T15:12:03;5.97;;;4.90;;
2604;SDS011;1312;50.298;8.520;2024-02-21T15:14:32;6.10;;;5.07;;
2604;SDS011;1312;50.298;8.520;2024-02-21T15:17:00;6.27;;;5.67;;